Dodge, Wisconsin
Current Conditions -  °F | °C
As of 10:14 AM on Wednesday 26 Nov 2014 (Local Time) from KONA Reporting Station
Clear Clear  
Wind Chill: 25°   Ceiling: Unl
Heat Index: 25°   Visibility: 10mi
Dew Point: 19°   Wind: 3mph
Humidity: 80%   Direction: 130°SE
Pressure: 30.15"   Gusts: NA
Location:  44.13°N, 91.55°W
Report Text: KONA 261614Z AUTO 13003KT 10SM CLR M04/M07 A3015 RMK AO2
Loading
Personal Weather Stations






























Interactive Weather Map New forecast layout! Learn more

10-Day Weather Forecast

Advertisements
Track Severe Weather on mobile